sensor_id;sensor_type;location;lat;lon;timestamp;pressure;altitude;pressure_sealevel;temperature;humidity
3142;BME280;1581;51.568;6.998;2022-10-01T00:06:29;99872.06;;;14.78;94.06
3142;BME280;1581;51.568;6.998;2022-10-01T00:09:16;99869.72;;;14.81;93.52
3142;BME280;1581;51.568;6.998;2022-10-01T00:12:28;99861.06;;;14.79;94.17
3142;BME280;1581;51.568;6.998;2022-10-01T00:19:02;99865.41;;;14.80;96.40
3142;BME280;1581;51.568;6.998;2022-10-01T00:22:14;99873.94;;;14.66;98.24
3142;BME280;1581;51.568;6.998;2022-10-01T00:25:09;99865.63;;;14.67;100.00
3142;BME280;1581;51.568;6.998;2022-10-01T00:27:46;99863.81;;;14.45;100.00
3142;BME280;1581;51.568;6.998;2022-10-01T00:35:30;99842.16;;;14.35;100.00
3142;BME280;1581;51.568;6.998;2022-10-01T00:38:00;99837.50;;;14.19;100.00
3142;BME280;1581;51.568;6.998;2022-10-01T00:40:30;99828.88;;;14.17;100.00
3142;BME280;1581;51.568;6.998;2022-10-01T00:45:46;99821.28;;;14.03;100.00
3142;BME280;1581;51.568;6.998;2022-10-01T00:48:15;99812.66;;;14.01;100.00
3142;BME280;1581;51.568;6.998;2022-10-01T00:50:43;99803.22;;;13.87;100.00
3142;BME280;1581;51.568;6.998;2022-10-01T00:53:16;99787.38;;;13.85;100.00
3142;BME280;1581;51.568;6.998;2022-10-01T00:55:54;99784.34;;;13.82;100.00
3142;BME280;1581;51.568;6.998;2022-10-01T00:58:23;99765.25;;;13.90;100.00
3142;BME280;1581;51.568;6.998;2022-10-01T01:00:54;99750.94;;;13.84;100.00
3142;BME280;1581;51.568;6.998;2022-10-01T01:03:22;99765.25;;;13.78;100.00
3142;BME280;1581;51.568;6.998;2022-10-01T01:05:51;99772.47;;;13.78;100.00
3142;BME280;1581;51.568;6.998;2022-10-01T01:08:20;99762.34;;;13.69;100.00
3142;BME280;1581;51.568;6.998;2022-10-01T01:10:55;99774.19;;;13.73;100.00
3142;BME280;1581;51.568;6.998;2022-10-01T01:13:34;99778.75;;;13.72;100.00
3142;BME280;1581;51.568;6.998;2022-10-01T01:16:08;99769.00;;;13.66;100.00
3142;BME280;1581;51.568;6.998;2022-10-01T01:18:55;99771.88;;;13.65;100.00
3142;BME280;1581;51.568;6.998;2022-10-01T01:21:29;99762.91;;;13.59;100.00
3142;BME280;1581;51.568;6.998;2022-10-01T01:24:28;99755.91;;;13.58;100.00
3142;BME280;1581;51.568;6.998;2022-10-01T01:27:27;99754.06;;;13.47;100.00
3142;BME280;1581;51.568;6.998;2022-10-01T01:30:04;99738.47;;;13.56;100.00
3142;BME280;1581;51.568;6.998;2022-10-01T01:32:49;99729.75;;;13.49;100.00
3142;BME280;1581;51.568;6.998;2022-10-01T01:35:24;99723.44;;;13.55;100.00
3142;BME280;1581;51.568;6.998;2022-10-01T01:38:01;99709.13;;;13.49;100.00
3142;BME280;1581;51.568;6.998;2022-10-01T01:40:32;99701.66;;;13.28;100.00
3142;BME280;1581;51.568;6.998;2022-10-01T01:43:04;99701.00;;;13.44;100.00
3142;BME280;1581;51.568;6.998;2022-10-01T01:45:40;99711.31;;;13.29;100.00
3142;BME280;1581;51.568;6.998;2022-10-01T01:48:10;99706.31;;;13.33;100.00
3142;BME280;1581;51.568;6.998;2022-10-01T01:50:43;99694.81;;;13.32;100.00
3142;BME280;1581;51.568;6.998;2022-10-01T01:53:14;99692.38;;;13.31;100.00
3142;BME280;1581;51.568;6.998;2022-10-01T01:55:42;99673.91;;;13.41;100.00
3142;BME280;1581;51.568;6.998;2022-10-01T01:58:11;99680.28;;;13.40;100.00
3142;BME280;1581;51.568;6.998;2022-10-01T02:00:40;99674.09;;;13.28;100.00
3142;BME280;1581;51.568;6.998;2022-10-01T02:03:09;99671.69;;;13.26;100.00
3142;BME280;1581;51.568;6.998;2022-10-01T02:05:42;99665.50;;;13.26;100.00
3142;BME280;1581;51.568;6.998;2022-10-01T02:08:32;99662.72;;;13.21;100.00
3142;BME280;1581;51.568;6.998;2022-10-01T02:11:28;99654.44;;;13.22;100.00
3142;BME280;1581;51.568;6.998;2022-10-01T02:14:09;99659.09;;;13.27;100.00
3142;BME280;1581;51.568;6.998;2022-10-01T02:16:47;99666.31;;;13.26;100.00
3142;BME280;1581;51.568;6.998;2022-10-01T02:19:23;99673.72;;;13.13;100.00
3142;BME280;1581;51.568;6.998;2022-10-01T02:21:59;99678.75;;;13.21;100.00
3142;BME280;1581;51.568;6.998;2022-10-01T02:24:35;99674.09;;;13.16;100.00
3142;BME280;1581;51.568;6.998;2022-10-01T02:27:09;99665.34;;;13.09;100.00
3142;BME280;1581;51.568;6.998;2022-10-01T02:29:40;99676.28;;;13.08;100.00
3142;BME280;1581;51.568;6.998;2022-10-01T02:32:12;99655.16;;;13.06;100.00
3142;BME280;1581;51.568;6.998;2022-10-01T02:34:43;99657.56;;;13.08;100.00
3142;BME280;1581;51.568;6.998;2022-10-01T02:37:12;99658.03;;;13.05;100.00
3142;BME280;1581;51.568;6.998;2022-10-01T02:39:41;99641.19;;;13.04;100.00
3142;BME280;1581;51.568;6.998;2022-10-01T02:42:12;99652.56;;;13.00;100.00
3142;BME280;1581;51.568;6.998;2022-10-01T02:44:43;99644.53;;;13.00;100.00
3142;BME280;1581;51.568;6.998;2022-10-01T02:47:19;99630.69;;;13.03;100.00
3142;BME280;1581;51.568;6.998;2022-10-01T02:49:48;99630.13;;;13.01;100.00
3142;BME280;1581;51.568;6.998;2022-10-01T02:52:25;99627.81;;;13.04;100.00
3142;BME280;1581;51.568;6.998;2022-10-01T02:54:57;99627.66;;;12.99;100.00
3142;BME280;1581;51.568;6.998;2022-10-01T02:57:26;99617.31;;;12.91;100.00
3142;BME280;1581;51.568;6.998;2022-10-01T02:59:57;99603.94;;;12.91;100.00
3142;BME280;1581;51.568;6.998;2022-10-01T03:02:28;99595.19;;;12.85;100.00
3142;BME280;1581;51.568;6.998;2022-10-01T03:04:57;99579.94;;;12.62;100.00
3142;BME280;1581;51.568;6.998;2022-10-01T03:07:25;99561.34;;;12.67;100.00
3142;BME280;1581;51.568;6.998;2022-10-01T03:09:53;99564.97;;;12.84;100.00
3142;BME280;1581;51.568;6.998;2022-10-01T03:12:21;99574.59;;;12.85;100.00
3142;BME280;1581;51.568;6.998;2022-10-01T03:14:49;99574.28;;;12.93;100.00
3142;BME280;1581;51.568;6.998;2022-10-01T03:17:18;99569.31;;;12.96;100.00
3142;BME280;1581;51.568;6.998;2022-10-01T03:19:48;99563.72;;;12.98;100.00
3142;BME280;1581;51.568;6.998;2022-10-01T03:22:17;99561.50;;;12.95;100.00
3142;BME280;1581;51.568;6.998;2022-10-01T03:24:47;99552.91;;;12.93;100.00
3142;BME280;1581;51.568;6.998;2022-10-01T03:27:15;99544.44;;;12.96;100.00
3142;BME280;1581;51.568;6.998;2022-10-01T03:29:42;99549.75;;;12.85;100.00
3142;BME280;1581;51.568;6.998;2022-10-01T03:32:11;99531.00;;;12.73;100.00
3142;BME280;1581;51.568;6.998;2022-10-01T03:34:39;99523.13;;;12.67;100.00
3142;BME280;1581;51.568;6.998;2022-10-01T03:37:08;99508.13;;;12.66;100.00
3142;BME280;1581;51.568;6.998;2022-10-01T03:39:36;99494.88;;;12.71;100.00
3142;BME280;1581;51.568;6.998;2022-10-01T03:42:07;99492.78;;;12.73;100.00
3142;BME280;1581;51.568;6.998;2022-10-01T03:44:35;99471.38;;;12.50;100.00
3142;BME280;1581;51.568;6.998;2022-10-01T03:47:03;99480.09;;;12.45;100.00
3142;BME280;1581;51.568;6.998;2022-10-01T03:49:31;99472.31;;;12.55;100.00
3142;BME280;1581;51.568;6.998;2022-10-01T03:52:08;99469.56;;;12.50;100.00
3142;BME280;1581;51.568;6.998;2022-10-01T03:54:36;99487.56;;;12.55;100.00
3142;BME280;1581;51.568;6.998;2022-10-01T03:57:04;99478.25;;;12.57;100.00
3142;BME280;1581;51.568;6.998;2022-10-01T03:59:32;99478.72;;;12.54;100.00
3142;BME280;1581;51.568;6.998;2022-10-01T04:02:01;99481.97;;;12.68;100.00
3142;BME280;1581;51.568;6.998;2022-10-01T04:04:28;99478.16;;;12.64;100.00
3142;BME280;1581;51.568;6.998;2022-10-01T04:06:56;99467.22;;;12.65;100.00
3142;BME280;1581;51.568;6.998;2022-10-01T04:09:25;99481.97;;;12.68;100.00
3142;BME280;1581;51.568;6.998;2022-10-01T04:11:52;99495.34;;;12.56;100.00
3142;BME280;1581;51.568;6.998;2022-10-01T04:14:20;99492.44;;;12.69;100.00
3142;BME280;1581;51.568;6.998;2022-10-01T04:16:48;99497.53;;;12.71;100.00
3142;BME280;1581;51.568;6.998;2022-10-01T04:19:18;99504.88;;;12.75;100.00
3142;BME280;1581;51.568;6.998;2022-10-01T04:21:46;99490.00;;;12.79;100.00
3142;BME280;1581;51.568;6.998;2022-10-01T04:24:14;99484.66;;;12.79;100.00
3142;BME280;1581;51.568;6.998;2022-10-01T04:26:42;99474.66;;;12.75;100.00
3142;BME280;1581;51.568;6.998;2022-10-01T04:29:10;99477.94;;;12.77;100.00
3142;BME280;1581;51.568;6.998;2022-10-01T04:31:38;99472.34;;;12.89;100.00
3142;BME280;1581;51.568;6.998;2022-10-01T04:34:05;99475.63;;;12.91;100.00
3142;BME280;1581;51.568;6.998;2022-10-01T04:36:33;99469.22;;;12.81;100.00
3142;BME280;1581;51.568;6.998;2022-10-01T04:39:01;99473.28;;;12.95;100.00
3142;BME280;1581;51.568;6.998;2022-10-01T04:41:29;99469.69;;;13.01;100.00
3142;BME280;1581;51.568;6.998;2022-10-01T04:43:58;99460.50;;;12.97;100.00
3142;BME280;1581;51.568;6.998;2022-10-01T04:46:26;99467.00;;;13.01;100.00
3142;BME280;1581;51.568;6.998;2022-10-01T04:48:54;99460.84;;;13.00;100.00
3142;BME280;1581;51.568;6.998;2022-10-01T04:51:21;99473.75;;;13.03;100.00
3142;BME280;1581;51.568;6.998;2022-10-01T04:53:49;99476.09;;;13.00;100.00
3142;BME280;1581;51.568;6.998;2022-10-01T04:56:16;99466.53;;;13.04;100.00
3142;BME280;1581;51.568;6.998;2022-10-01T04:58:44;99466.41;;;13.10;100.00
3142;BME280;1581;51.568;6.998;2022-10-01T05:01:13;99474.91;;;13.07;100.00
3142;BME280;1581;51.568;6.998;2022-10-01T05:03:40;99465.72;;;13.03;100.00
3142;BME280;1581;51.568;6.998;2022-10-01T05:06:08;99458.63;;;13.09;100.00
3142;BME280;1581;51.568;6.998;2022-10-01T05:08:36;99468.16;;;13.16;100.00
3142;BME280;1581;51.568;6.998;2022-10-01T05:11:04;99469.19;;;13.04;100.00
3142;BME280;1581;51.568;6.998;2022-10-01T05:13:32;99479.44;;;13.07;100.00
3142;BME280;1581;51.568;6.998;2022-10-01T05:16:00;99483.84;;;13.01;100.00
3142;BME280;1581;51.568;6.998;2022-10-01T05:18:30;99480.16;;;12.91;100.00
3142;BME280;1581;51.568;6.998;2022-10-01T05:20:57;99480.50;;;12.94;100.00
3142;BME280;1581;51.568;6.998;2022-10-01T05:23:25;99478.97;;;12.87;100.00
3142;BME280;1581;51.568;6.998;2022-10-01T05:25:52;99491.19;;;12.94;100.00
3142;BME280;1581;51.568;6.998;2022-10-01T05:28:20;99497.34;;;12.95;100.00
3142;BME280;1581;51.568;6.998;2022-10-01T05:30:48;99497.34;;;13.06;100.00
3142;BME280;1581;51.568;6.998;2022-10-01T05:33:16;99497.56;;;13.05;100.00
3142;BME280;1581;51.568;6.998;2022-10-01T05:35:45;99511.78;;;13.05;100.00
3142;BME280;1581;51.568;6.998;2022-10-01T05:38:13;99504.78;;;13.04;100.00
3142;BME280;1581;51.568;6.998;2022-10-01T05:40:44;99510.59;;;13.01;100.00
3142;BME280;1581;51.568;6.998;2022-10-01T05:43:12;99518.75;;;13.06;100.00
3142;BME280;1581;51.568;6.998;2022-10-01T05:45:41;99520.25;;;13.02;100.00
3142;BME280;1581;51.568;6.998;2022-10-01T05:48:08;99513.41;;;13.06;100.00
3142;BME280;1581;51.568;6.998;2022-10-01T05:50:39;99523.84;;;13.08;100.00
3142;BME280;1581;51.568;6.998;2022-10-01T05:53:10;99520.72;;;12.99;100.00
3142;BME280;1581;51.568;6.998;2022-10-01T05:55:39;99525.59;;;13.02;100.00
3142;BME280;1581;51.568;6.998;2022-10-01T05:58:08;99534.91;;;13.00;100.00
3142;BME280;1581;51.568;6.998;2022-10-01T06:00:38;99521.28;;;13.01;100.00
3142;BME280;1581;51.568;6.998;2022-10-01T06:03:06;99527.34;;;12.97;100.00
3142;BME280;1581;51.568;6.998;2022-10-01T06:05:35;99540.00;;;13.01;100.00
3142;BME280;1581;51.568;6.998;2022-10-01T06:08:05;99530.25;;;13.07;100.00
3142;BME280;1581;51.568;6.998;2022-10-01T06:10:36;99532.69;;;13.08;100.00
3142;BME280;1581;51.568;6.998;2022-10-01T06:13:04;99534.53;;;13.19;100.00
3142;BME280;1581;51.568;6.998;2022-10-01T06:15:35;99541.97;;;13.29;100.00
3142;BME280;1581;51.568;6.998;2022-10-01T06:18:03;99535.59;;;13.30;100.00
3142;BME280;1581;51.568;6.998;2022-10-01T06:20:34;99531.16;;;13.24;100.00
3142;BME280;1581;51.568;6.998;2022-10-01T06:23:03;99527.22;;;13.26;100.00
3142;BME280;1581;51.568;6.998;2022-10-01T06:25:33;99525.09;;;13.28;100.00
3142;BME280;1581;51.568;6.998;2022-10-01T06:28:05;99542.09;;;13.22;100.00
3142;BME280;1581;51.568;6.998;2022-10-01T06:30:35;99542.34;;;13.21;100.00
3142;BME280;1581;51.568;6.998;2022-10-01T06:33:05;99543.59;;;13.30;100.00
3142;BME280;1581;51.568;6.998;2022-10-01T06:35:35;99553.59;;;13.23;100.00
3142;BME280;1581;51.568;6.998;2022-10-01T06:38:05;99549.41;;;13.27;100.00
3142;BME280;1581;51.568;6.998;2022-10-01T06:40:34;99557.44;;;13.27;100.00
3142;BME280;1581;51.568;6.998;2022-10-01T06:43:04;99550.00;;;13.29;100.00
3142;BME280;1581;51.568;6.998;2022-10-01T06:45:36;99550.81;;;13.41;100.00
3142;BME280;1581;51.568;6.998;2022-10-01T06:48:04;99550.91;;;13.46;100.00
3142;BME280;1581;51.568;6.998;2022-10-01T06:50:36;99547.38;;;13.57;100.00
3142;BME280;1581;51.568;6.998;2022-10-01T06:53:03;99556.50;;;13.44;100.00
3142;BME280;1581;51.568;6.998;2022-10-01T06:55:33;99556.84;;;13.48;100.00
3142;BME280;1581;51.568;6.998;2022-10-01T06:58:05;99553.69;;;13.39;100.00
3142;BME280;1581;51.568;6.998;2022-10-01T07:00:36;99547.78;;;13.37;100.00
3142;BME280;1581;51.568;6.998;2022-10-01T07:03:05;99552.91;;;13.39;100.00
3142;BME280;1581;51.568;6.998;2022-10-01T07:05:36;99557.22;;;13.40;100.00
3142;BME280;1581;51.568;6.998;2022-10-01T07:08:04;99561.38;;;13.47;100.00
3142;BME280;1581;51.568;6.998;2022-10-01T07:10:33;99556.13;;;13.52;100.00
3142;BME280;1581;51.568;6.998;2022-10-01T07:13:07;99563.47;;;13.45;100.00
3142;BME280;1581;51.568;6.998;2022-10-01T07:15:35;99561.38;;;13.36;100.00
3142;BME280;1581;51.568;6.998;2022-10-01T07:18:03;99559.16;;;13.33;100.00
3142;BME280;1581;51.568;6.998;2022-10-01T07:20:34;99569.53;;;13.41;100.00
3142;BME280;1581;51.568;6.998;2022-10-01T07:23:06;99571.63;;;13.39;100.00
3142;BME280;1581;51.568;6.998;2022-10-01T07:25:34;99567.06;;;13.51;100.00
3142;BME280;1581;51.568;6.998;2022-10-01T07:28:06;99575.19;;;13.56;100.00
3142;BME280;1581;51.568;6.998;2022-10-01T07:30:43;99576.72;;;13.63;100.00
3142;BME280;1581;51.568;6.998;2022-10-01T07:33:17;99579.34;;;13.74;100.00
3142;BME280;1581;51.568;6.998;2022-10-01T07:35:44;99582.16;;;13.79;100.00
3142;BME280;1581;51.568;6.998;2022-10-01T07:38:21;99593.06;;;13.89;100.00
3142;BME280;1581;51.568;6.998;2022-10-01T07:40:52;99603.22;;;13.76;100.00
3142;BME280;1581;51.568;6.998;2022-10-01T07:43:21;99599.28;;;13.67;100.00
3142;BME280;1581;51.568;6.998;2022-10-01T07:45:49;99596.00;;;13.76;100.00
3142;BME280;1581;51.568;6.998;2022-10-01T07:48:20;99599.91;;;13.97;100.00
3142;BME280;1581;51.568;6.998;2022-10-01T07:50:47;99595.47;;;14.02;100.00
3142;BME280;1581;51.568;6.998;2022-10-01T07:53:16;99596.50;;;14.13;100.00
3142;BME280;1581;51.568;6.998;2022-10-01T07:55:44;99599.28;;;14.06;100.00
3142;BME280;1581;51.568;6.998;2022-10-01T07:58:12;99599.19;;;14.13;100.00
3142;BME280;1581;51.568;6.998;2022-10-01T08:00:41;99593.09;;;14.17;100.00
3142;BME280;1581;51.568;6.998;2022-10-01T08:03:10;99600.34;;;14.17;100.00
3142;BME280;1581;51.568;6.998;2022-10-01T08:05:40;99600.72;;;14.37;100.00
3142;BME280;1581;51.568;6.998;2022-10-01T08:08:09;99609.38;;;14.71;100.00
3142;BME280;1581;51.568;6.998;2022-10-01T08:10:37;99614.56;;;14.62;100.00
3142;BME280;1581;51.568;6.998;2022-10-01T08:13:08;99608.00;;;14.69;100.00
3142;BME280;1581;51.568;6.998;2022-10-01T08:15:41;99605.16;;;14.75;100.00
3142;BME280;1581;51.568;6.998;2022-10-01T08:18:09;99605.31;;;14.69;100.00
3142;BME280;1581;51.568;6.998;2022-10-01T08:20:38;99618.19;;;14.83;100.00
3142;BME280;1581;51.568;6.998;2022-10-01T08:23:07;99614.03;;;14.76;100.00
3142;BME280;1581;51.568;6.998;2022-10-01T08:25:37;99626.53;;;14.87;100.00
3142;BME280;1581;51.568;6.998;2022-10-01T08:28:05;99630.72;;;15.11;100.00
3142;BME280;1581;51.568;6.998;2022-10-01T08:30:34;99632.25;;;15.07;100.00
3142;BME280;1581;51.568;6.998;2022-10-01T08:33:04;99644.88;;;15.06;100.00
3142;BME280;1581;51.568;6.998;2022-10-01T08:35:42;99651.50;;;15.04;100.00
3142;BME280;1581;51.568;6.998;2022-10-01T08:38:14;99646.56;;;15.12;100.00
3142;BME280;1581;51.568;6.998;2022-10-01T08:40:50;99654.19;;;15.04;100.00
3142;BME280;1581;51.568;6.998;2022-10-01T08:43:30;99658.78;;;15.36;100.00
3142;BME280;1581;51.568;6.998;2022-10-01T08:46:01;99656.28;;;15.30;100.00
3142;BME280;1581;51.568;6.998;2022-10-01T08:48:44;99651.97;;;15.29;100.00
3142;BME280;1581;51.568;6.998;2022-10-01T08:51:22;99658.13;;;15.29;100.00
3142;BME280;1581;51.568;6.998;2022-10-01T08:53:54;99671.47;;;15.57;100.00
3142;BME280;1581;51.568;6.998;2022-10-01T08:56:33;99670.06;;;15.22;100.00
3142;BME280;1581;51.568;6.998;2022-10-01T08:59:08;99672.66;;;15.17;100.00
3142;BME280;1581;51.568;6.998;2022-10-01T09:01:39;99670.06;;;15.22;100.00
3142;BME280;1581;51.568;6.998;2022-10-01T09:04:11;99675.19;;;15.23;100.00
3142;BME280;1581;51.568;6.998;2022-10-01T09:06:57;99678.22;;;15.27;100.00
3142;BME280;1581;51.568;6.998;2022-10-01T09:09:42;99676.59;;;15.26;100.00
3142;BME280;1581;51.568;6.998;2022-10-01T09:16:22;99686.09;;;15.66;100.00
3142;BME280;1581;51.568;6.998;2022-10-01T09:19:14;99684.53;;;15.53;100.00
3142;BME280;1581;51.568;6.998;2022-10-01T09:21:55;99686.03;;;15.45;100.00
3142;BME280;1581;51.568;6.998;2022-10-01T09:24:41;99691.69;;;15.64;100.00
3142;BME280;1581;51.568;6.998;2022-10-01T09:27:15;99691.72;;;15.48;100.00
3142;BME280;1581;51.568;6.998;2022-10-01T09:29:49;99700.13;;;15.52;100.00
3142;BME280;1581;51.568;6.998;2022-10-01T09:32:26;99699.44;;;15.45;100.00
3142;BME280;1581;51.568;6.998;2022-10-01T09:34:56;99704.38;;;15.69;100.00
3142;BME280;1581;51.568;6.998;2022-10-01T09:37:40;99698.84;;;15.75;100.00
3142;BME280;1581;51.568;6.998;2022-10-01T09:40:26;99699.53;;;16.25;100.00
3142;BME280;1581;51.568;6.998;2022-10-01T09:44:34;99705.34;;;16.17;100.00
3142;BME280;1581;51.568;6.998;2022-10-01T10:02:21;99732.84;;;15.86;100.00
3142;BME280;1581;51.568;6.998;2022-10-01T10:05:55;99735.78;;;16.23;100.00
3142;BME280;1581;51.568;6.998;2022-10-01T10:13:38;99728.81;;;16.05;100.00
3142;BME280;1581;51.568;6.998;2022-10-01T10:16:05;99733.59;;;16.20;100.00
3142;BME280;1581;51.568;6.998;2022-10-01T10:18:39;99729.47;;;16.50;100.00
3142;BME280;1581;51.568;6.998;2022-10-01T10:21:30;99733.94;;;16.66;100.00
3142;BME280;1581;51.568;6.998;2022-10-01T10:24:06;99734.88;;;16.76;100.00
3142;BME280;1581;51.568;6.998;2022-10-01T10:27:23;99744.25;;;16.74;100.00
3142;BME280;1581;51.568;6.998;2022-10-01T10:30:06;99743.50;;;16.78;100.00
3142;BME280;1581;51.568;6.998;2022-10-01T10:33:14;99743.06;;;16.86;100.00
3142;BME280;1581;51.568;6.998;2022-10-01T10:36:19;99750.56;;;16.63;100.00
3142;BME280;1581;51.568;6.998;2022-10-01T10:39:02;99743.44;;;16.31;100.00
3142;BME280;1581;51.568;6.998;2022-10-01T10:41:50;99754.53;;;16.34;100.00
3142;BME280;1581;51.568;6.998;2022-10-01T10:44:26;99761.34;;;16.41;100.00
3142;BME280;1581;51.568;6.998;2022-10-01T10:47:01;99752.56;;;16.30;100.00
3142;BME280;1581;51.568;6.998;2022-10-01T10:49:44;99752.72;;;16.61;100.00
3142;BME280;1581;51.568;6.998;2022-10-01T10:52:30;99761.25;;;17.01;100.00
3142;BME280;1581;51.568;6.998;2022-10-01T10:55:27;99758.34;;;17.33;100.00
3142;BME280;1581;51.568;6.998;2022-10-01T10:58:13;99769.69;;;17.67;100.00
3142;BME280;1581;51.568;6.998;2022-10-01T11:00:50;99777.31;;;17.75;100.00
3142;BME280;1581;51.568;6.998;2022-10-01T11:03:26;99763.75;;;17.33;100.00
3142;BME280;1581;51.568;6.998;2022-10-01T11:06:14;99773.31;;;17.46;100.00
3142;BME280;1581;51.568;6.998;2022-10-01T11:09:21;99785.38;;;17.43;100.00
3142;BME280;1581;51.568;6.998;2022-10-01T11:12:33;99781.47;;;17.56;100.00
3142;BME280;1581;51.568;6.998;2022-10-01T11:18:49;99784.22;;;17.34;100.00
3142;BME280;1581;51.568;6.998;2022-10-01T11:22:03;99783.38;;;17.92;100.00
3142;BME280;1581;51.568;6.998;2022-10-01T11:25:00;99794.06;;;17.82;100.00
3142;BME280;1581;51.568;6.998;2022-10-01T11:27:45;99791.59;;;18.12;100.00
3142;BME280;1581;51.568;6.998;2022-10-01T11:30:35;99782.34;;;17.61;100.00
3142;BME280;1581;51.568;6.998;2022-10-01T11:33:19;99792.28;;;17.61;100.00
3142;BME280;1581;51.568;6.998;2022-10-01T11:36:00;99788.03;;;18.01;100.00
3142;BME280;1581;51.568;6.998;2022-10-01T11:38:56;99782.94;;;18.41;100.00
3142;BME280;1581;51.568;6.998;2022-10-01T11:41:42;99782.97;;;18.51;100.00
3142;BME280;1581;51.568;6.998;2022-10-01T11:44:17;99777.34;;;18.16;100.00
3142;BME280;1581;51.568;6.998;2022-10-01T11:46:55;99785.91;;;18.08;100.00
3142;BME280;1581;51.568;6.998;2022-10-01T11:53:47;99786.78;;;17.77;100.00
3142;BME280;1581;51.568;6.998;2022-10-01T11:56:33;99796.81;;;17.55;100.00
3142;BME280;1581;51.568;6.998;2022-10-01T11:59:29;99808.69;;;17.07;100.00
3142;BME280;1581;51.568;6.998;2022-10-01T12:02:17;99809.63;;;16.96;100.00
3142;BME280;1581;51.568;6.998;2022-10-01T12:04:59;99808.84;;;16.95;100.00
3142;BME280;1581;51.568;6.998;2022-10-01T12:07:39;99828.84;;;16.83;100.00
3142;BME280;1581;51.568;6.998;2022-10-01T12:10:28;99825.44;;;16.49;100.00
3142;BME280;1581;51.568;6.998;2022-10-01T12:13:03;99826.28;;;16.50;100.00
3142;BME280;1581;51.568;6.998;2022-10-01T12:15:44;99837.28;;;16.91;100.00
3142;BME280;1581;51.568;6.998;2022-10-01T12:18:21;99833.94;;;17.80;100.00
3142;BME280;1581;51.568;6.998;2022-10-01T12:21:00;99832.59;;;17.82;100.00
3142;BME280;1581;51.568;6.998;2022-10-01T12:23:42;99848.50;;;18.15;100.00
3142;BME280;1581;51.568;6.998;2022-10-01T12:26:40;99841.22;;;18.47;100.00
3142;BME280;1581;51.568;6.998;2022-10-01T12:29:41;99851.75;;;19.00;100.00
3142;BME280;1581;51.568;6.998;2022-10-01T12:32:48;99848.66;;;19.37;100.00
3142;BME280;1581;51.568;6.998;2022-10-01T12:35:43;99858.13;;;19.45;100.00
3142;BME280;1581;51.568;6.998;2022-10-01T12:38:34;99867.22;;;19.19;100.00
3142;BME280;1581;51.568;6.998;2022-10-01T12:41:18;99857.06;;;18.80;100.00
3142;BME280;1581;51.568;6.998;2022-10-01T12:44:08;99879.41;;;18.70;100.00
3142;BME280;1581;51.568;6.998;2022-10-01T12:50:22;99851.19;;;17.79;100.00
3142;BME280;1581;51.568;6.998;2022-10-01T12:53:31;99882.84;;;17.19;100.00
3142;BME280;1581;51.568;6.998;2022-10-01T12:56:35;99870.28;;;17.03;100.00
3142;BME280;1581;51.568;6.998;2022-10-01T13:00:12;99882.63;;;17.21;100.00
3142;BME280;1581;51.568;6.998;2022-10-01T13:03:25;99879.63;;;17.91;100.00
3142;BME280;1581;51.568;6.998;2022-10-01T13:07:02;99889.06;;;17.94;100.00
3142;BME280;1581;51.568;6.998;2022-10-01T13:09:52;99885.09;;;18.37;100.00
3142;BME280;1581;51.568;6.998;2022-10-01T13:13:20;99888.56;;;18.69;100.00
3142;BME280;1581;51.568;6.998;2022-10-01T13:16:15;99899.91;;;19.22;100.00
3142;BME280;1581;51.568;6.998;2022-10-01T13:19:22;99910.38;;;19.85;100.00
3142;BME280;1581;51.568;6.998;2022-10-01T13:22:26;99907.38;;;19.77;100.00
3142;BME280;1581;51.568;6.998;2022-10-01T13:25:37;99932.16;;;19.49;100.00
3142;BME280;1581;51.568;6.998;2022-10-01T13:28:21;99921.84;;;19.31;100.00
3142;BME280;1581;51.568;6.998;2022-10-01T13:34:40;99930.63;;;19.78;100.00
3142;BME280;1581;51.568;6.998;2022-10-01T13:37:38;99942.31;;;20.03;100.00
3142;BME280;1581;51.568;6.998;2022-10-01T13:43:30;99953.72;;;20.25;100.00
3142;BME280;1581;51.568;6.998;2022-10-01T13:46:17;99963.44;;;20.16;100.00
3142;BME280;1581;51.568;6.998;2022-10-01T13:48:53;99966.13;;;20.06;100.00
3142;BME280;1581;51.568;6.998;2022-10-01T13:51:49;99970.63;;;19.66;100.00
3142;BME280;1581;51.568;6.998;2022-10-01T13:54:33;99982.31;;;18.84;100.00
3142;BME280;1581;51.568;6.998;2022-10-01T13:57:08;99988.31;;;19.98;100.00
3142;BME280;1581;51.568;6.998;2022-10-01T14:00:21;99987.22;;;19.99;100.00
3142;BME280;1581;51.568;6.998;2022-10-01T14:03:45;99994.81;;;20.07;100.00
3142;BME280;1581;51.568;6.998;2022-10-01T14:06:44;100000.22;;;20.07;100.00
3142;BME280;1581;51.568;6.998;2022-10-01T14:10:08;100009.75;;;20.79;100.00
3142;BME280;1581;51.568;6.998;2022-10-01T14:12:50;100012.16;;;21.20;100.00
3142;BME280;1581;51.568;6.998;2022-10-01T14:15:46;100015.16;;;20.99;100.00
3142;BME280;1581;51.568;6.998;2022-10-01T14:18:40;100028.03;;;21.52;100.00
3142;BME280;1581;51.568;6.998;2022-10-01T14:21:34;100033.13;;;22.31;97.84
3142;BME280;1581;51.568;6.998;2022-10-01T14:25:05;100038.06;;;23.24;91.27
3142;BME280;1581;51.568;6.998;2022-10-01T14:31:53;100059.34;;;24.11;90.99
3142;BME280;1581;51.568;6.998;2022-10-01T14:34:57;100053.47;;;23.05;88.45
3142;BME280;1581;51.568;6.998;2022-10-01T14:38:13;100089.72;;;22.58;96.05
3142;BME280;1581;51.568;6.998;2022-10-01T14:41:22;100064.75;;;20.89;100.00
3142;BME280;1581;51.568;6.998;2022-10-01T14:44:35;100073.91;;;19.26;100.00
3142;BME280;1581;51.568;6.998;2022-10-01T14:47:21;100066.28;;;18.82;100.00
3142;BME280;1581;51.568;6.998;2022-10-01T14:50:21;100061.44;;;18.26;100.00
3142;BME280;1581;51.568;6.998;2022-10-01T14:52:50;100061.56;;;17.72;100.00
3142;BME280;1581;51.568;6.998;2022-10-01T14:55:22;100073.88;;;17.63;100.00
3142;BME280;1581;51.568;6.998;2022-10-01T14:57:53;100073.00;;;17.79;100.00
3142;BME280;1581;51.568;6.998;2022-10-01T15:00:24;100072.47;;;18.25;100.00
3142;BME280;1581;51.568;6.998;2022-10-01T15:03:07;100075.28;;;18.13;100.00
3142;BME280;1581;51.568;6.998;2022-10-01T15:05:38;100077.06;;;18.82;100.00
3142;BME280;1581;51.568;6.998;2022-10-01T15:08:14;100086.00;;;19.19;100.00
3142;BME280;1581;51.568;6.998;2022-10-01T15:36:35;100128.50;;;20.21;100.00
3142;BME280;1581;51.568;6.998;2022-10-01T15:39:34;100127.47;;;20.52;100.00